Nearby METAR Reports

 

KNTU - NAS Oceana, Virginia Beach, Virginia, USA
Distance from station: N 3.2mi, 5.1km
Updated: Sun, 20-Sep-2020 2:56pm EDT
Partly cloudy
Partly cloudy
 Wind from NE
Wind: NE 17 mph , 28 km/h, Gust: 24 mph , 39 km/h
Temperature: 73°F , 23°C
Dew Point: 46°F , 8°C
Humidity: 38%
Barometer: 30.36 inHg , 1028.1 hPa
Clouds: Partly cloudy
Visibility: 10 miles , 16 km
Cloud details: Few Clouds 4900 ft
Partly cloudy 6500 ft
2020/09/20 18:56 KNTU 201856Z 05015G21KT 10SM FEW049 SCT065 23/08 A3036 RMK AO2 SLP284 T02280078
KNFE - Fentress NALF, Virginia Beach Virginia, USA
Distance from station: SW 7.6mi, 12.2km
Updated: Sun, 20-Sep-2020 3:56pm EDT
Partly cloudy
Partly cloudy
 Wind from NE
Wind: NE 15 mph , 24 km/h, Gust: 25 mph , 41 km/h
Temperature: 70°F , 21°C
Dew Point: 46°F , 8°C
Humidity: 43%
Barometer: 30.36 inHg , 1028.1 hPa
Clouds: Partly cloudy
Visibility: 10 miles , 16 km
Cloud details: Partly cloudy 5000 ft
2020/09/20 19:56 KNFE 201956Z AUTO 04013G22KT 10SM SCT050 21/08 A3036 RMK AO2 SLP284 T02060078
 
KORF - Norfolk International, Norfolk, Virginia, USA
Distance from station: NW 12.2mi, 19.6km
Updated: Sun, 20-Sep-2020 3:51pm EDT
Mostly cloudy
Mostly cloudy
 Wind from NE
Wind: NE 15 mph , 24 km/h, Gust: 29 mph , 46 km/h
Temperature: 70°F , 21°C
Dew Point: 48°F , 9°C
Humidity: 46%
Barometer: 30.37 inHg , 1028.4 hPa
Clouds: Mostly cloudy
Visibility: 10 miles , 16 km
Cloud details: Few Clouds 4400 ft
Few Clouds 5500 ft
Mostly cloudy 7000 ft
2020/09/20 19:51 KORF 201951Z 05013G25KT 10SM FEW044 FEW055 BKN070 21/09 A3037 RMK AO2 SLP285 T02060094
KCPK - Cheasapeak Municipal, Cheasapeak, Virginia, USA
Distance from station: SW 17.2mi, 27.7km
Updated: Sun, 20-Sep-2020 3:55pm EDT
Partly cloudy
Partly cloudy
 Wind from NNE
Wind: NNE 13 mph , 20 km/h, Gust: 20 mph , 31 km/h
Temperature: 70°F , 21°C
Dew Point: 46°F , 8°C
Humidity: 43%
Barometer: 30.37 inHg , 1028.4 hPa
Clouds: Partly cloudy
Visibility: 10 miles , 16 km
Cloud details: Partly cloudy 4700 ft
Partly cloudy 5500 ft
2020/09/20 19:55 KCPK 201955Z AUTO 03011G17KT 10SM SCT047 SCT055 21/08 A3037 RMK AO2 T02050076
 
KNGU - NAS Norfolk, Norfolk, Virginia, USA
Distance from station: NW 17.7mi, 28.5km
Updated: Sun, 20-Sep-2020 2:59pm EDT
Mostly cloudy
Mostly cloudy
 Wind from ENE
Wind: ENE 17 mph , 28 km/h, Gust: 26 mph , 43 km/h
Temperature: 70°F , 21°C
Dew Point: 48°F , 9°C
Humidity: 46%
Barometer: 30.39 inHg , 1029.1 hPa
Clouds: Mostly cloudy
Visibility: 10 miles , 16 km
Cloud details: Partly cloudy 4300 ft
Mostly cloudy 5000 ft
2020/09/20 18:59 KNGU 201859Z 07015G23KT 10SM SCT043 BKN050 21/09 A3039 RMK AO2 SLP291 T02110094 $